sensor_id;sensor_type;location;lat;lon;timestamp;pressure;altitude;pressure_sealevel;temperature;humidity
74615;BME280;63121;51.458;-0.110;2022-12-20T00:01:15;100443.91;;;14.73;75.84
74615;BME280;63121;51.458;-0.110;2022-12-20T00:03:41;100451.16;;;14.63;75.60
74615;BME280;63121;51.458;-0.110;2022-12-20T00:06:08;100445.69;;;14.71;75.30
74615;BME280;63121;51.458;-0.110;2022-12-20T00:08:35;100443.31;;;15.17;74.36
74615;BME280;63121;51.458;-0.110;2022-12-20T00:11:02;100438.59;;;15.28;73.56
74615;BME280;63121;51.458;-0.110;2022-12-20T00:13:29;100445.91;;;14.92;75.04
74615;BME280;63121;51.458;-0.110;2022-12-20T00:16:07;100432.16;;;14.88;75.62
74615;BME280;63121;51.458;-0.110;2022-12-20T00:18:32;100435.66;;;14.60;76.42
74615;BME280;63121;51.458;-0.110;2022-12-20T00:20:58;100433.50;;;15.00;75.68
74615;BME280;63121;51.458;-0.110;2022-12-20T00:23:24;100434.44;;;14.72;76.16
74615;BME280;63121;51.458;-0.110;2022-12-20T00:25:49;100429.03;;;14.78;75.48
74615;BME280;63121;51.458;-0.110;2022-12-20T00:28:15;100406.84;;;14.95;75.93
74615;BME280;63121;51.458;-0.110;2022-12-20T00:30:40;100428.84;;;14.84;75.67
74615;BME280;63121;51.458;-0.110;2022-12-20T00:33:05;100402.56;;;14.92;75.23
74615;BME280;63121;51.458;-0.110;2022-12-20T00:35:30;100405.31;;;14.88;75.33
74615;BME280;63121;51.458;-0.110;2022-12-20T00:37:56;100406.88;;;15.18;74.22
74615;BME280;63121;51.458;-0.110;2022-12-20T00:40:21;100406.38;;;15.07;74.32
74615;BME280;63121;51.458;-0.110;2022-12-20T00:42:46;100401.56;;;14.96;74.52
74615;BME280;63121;51.458;-0.110;2022-12-20T00:45:12;100405.75;;;15.00;75.12
74615;BME280;63121;51.458;-0.110;2022-12-20T00:47:37;100405.66;;;14.78;75.81
74615;BME280;63121;51.458;-0.110;2022-12-20T00:50:03;100395.88;;;14.85;76.33
74615;BME280;63121;51.458;-0.110;2022-12-20T00:52:29;100405.28;;;14.89;76.39
74615;BME280;63121;51.458;-0.110;2022-12-20T00:54:54;100396.69;;;14.87;75.91
74615;BME280;63121;51.458;-0.110;2022-12-20T00:57:19;100394.16;;;14.84;76.42
74615;BME280;63121;51.458;-0.110;2022-12-20T00:59:45;100403.94;;;14.77;76.38
74615;BME280;63121;51.458;-0.110;2022-12-20T01:02:10;100398.97;;;14.96;76.42
74615;BME280;63121;51.458;-0.110;2022-12-20T01:04:35;100386.88;;;14.95;76.79
74615;BME280;63121;51.458;-0.110;2022-12-20T01:07:01;100401.25;;;15.06;76.41
74615;BME280;63121;51.458;-0.110;2022-12-20T01:09:26;100407.53;;;14.73;77.49
74615;BME280;63121;51.458;-0.110;2022-12-20T01:11:52;100394.53;;;14.73;77.51
74615;BME280;63121;51.458;-0.110;2022-12-20T01:14:17;100397.31;;;14.94;76.86
74615;BME280;63121;51.458;-0.110;2022-12-20T01:16:45;100400.25;;;14.84;77.32
74615;BME280;63121;51.458;-0.110;2022-12-20T01:19:13;100389.91;;;14.56;78.61
74615;BME280;63121;51.458;-0.110;2022-12-20T01:21:40;100392.31;;;14.88;77.38
74615;BME280;63121;51.458;-0.110;2022-12-20T01:24:10;100390.09;;;15.02;77.25
74615;BME280;63121;51.458;-0.110;2022-12-20T01:26:36;100376.69;;;14.89;77.95
74615;BME280;63121;51.458;-0.110;2022-12-20T01:29:01;100389.66;;;14.91;77.74
74615;BME280;63121;51.458;-0.110;2022-12-20T01:31:28;100391.53;;;15.11;76.52
74615;BME280;63121;51.458;-0.110;2022-12-20T01:33:54;100393.25;;;15.12;76.99
74615;BME280;63121;51.458;-0.110;2022-12-20T01:36:27;100381.56;;;14.98;77.49
74615;BME280;63121;51.458;-0.110;2022-12-20T01:38:58;100383.56;;;15.15;76.88
74615;BME280;63121;51.458;-0.110;2022-12-20T01:41:24;100377.75;;;14.83;77.21
74615;BME280;63121;51.458;-0.110;2022-12-20T01:43:56;100386.28;;;15.12;76.75
74615;BME280;63121;51.458;-0.110;2022-12-20T01:46:23;100381.19;;;15.09;76.60
74615;BME280;63121;51.458;-0.110;2022-12-20T01:51:24;100374.19;;;15.11;77.11
74615;BME280;63121;51.458;-0.110;2022-12-20T01:53:57;100363.63;;;15.16;76.79
74615;BME280;63121;51.458;-0.110;2022-12-20T01:56:25;100364.06;;;15.03;77.21
74615;BME280;63121;51.458;-0.110;2022-12-20T01:58:52;100376.94;;;15.07;76.66
74615;BME280;63121;51.458;-0.110;2022-12-20T02:01:21;100377.75;;;15.32;75.97
74615;BME280;63121;51.458;-0.110;2022-12-20T02:03:47;100366.78;;;15.24;76.25
74615;BME280;63121;51.458;-0.110;2022-12-20T02:06:17;100370.88;;;14.82;77.81
74615;BME280;63121;51.458;-0.110;2022-12-20T02:08:44;100360.06;;;14.95;77.57
74615;BME280;63121;51.458;-0.110;2022-12-20T02:16:55;100368.53;;;15.23;76.52
74615;BME280;63121;51.458;-0.110;2022-12-20T02:22:24;100373.72;;;15.00;77.13
74615;BME280;63121;51.458;-0.110;2022-12-20T02:28:00;100361.44;;;15.29;76.35
74615;BME280;63121;51.458;-0.110;2022-12-20T02:30:34;100359.13;;;14.96;77.46
74615;BME280;63121;51.458;-0.110;2022-12-20T02:33:06;100354.91;;;14.93;77.80
74615;BME280;63121;51.458;-0.110;2022-12-20T02:35:35;100365.31;;;15.17;77.21
74615;BME280;63121;51.458;-0.110;2022-12-20T02:38:25;100371.50;;;15.38;76.49
74615;BME280;63121;51.458;-0.110;2022-12-20T02:40:50;100358.53;;;15.13;76.91
74615;BME280;63121;51.458;-0.110;2022-12-20T02:43:20;100336.94;;;15.34;75.92
74615;BME280;63121;51.458;-0.110;2022-12-20T02:46:08;100353.75;;;15.25;76.37
74615;BME280;63121;51.458;-0.110;2022-12-20T02:48:36;100339.84;;;15.50;75.42
74615;BME280;63121;51.458;-0.110;2022-12-20T02:51:04;100340.84;;;15.46;75.68
74615;BME280;63121;51.458;-0.110;2022-12-20T02:53:31;100350.03;;;15.56;75.27
74615;BME280;63121;51.458;-0.110;2022-12-20T02:56:17;100348.75;;;15.43;75.19
74615;BME280;63121;51.458;-0.110;2022-12-20T02:58:53;100342.09;;;15.59;75.55
74615;BME280;63121;51.458;-0.110;2022-12-20T03:01:27;100343.72;;;15.38;76.12
74615;BME280;63121;51.458;-0.110;2022-12-20T03:03:54;100337.13;;;15.30;76.10
74615;BME280;63121;51.458;-0.110;2022-12-20T03:06:20;100338.69;;;15.10;76.86
74615;BME280;63121;51.458;-0.110;2022-12-20T03:08:45;100336.72;;;15.17;76.17
74615;BME280;63121;51.458;-0.110;2022-12-20T03:11:11;100336.16;;;15.09;76.71
74615;BME280;63121;51.458;-0.110;2022-12-20T03:13:37;100325.88;;;15.06;76.73
74615;BME280;63121;51.458;-0.110;2022-12-20T03:16:03;100316.44;;;15.27;75.37
74615;BME280;63121;51.458;-0.110;2022-12-20T03:18:28;100326.47;;;14.89;76.64
74615;BME280;63121;51.458;-0.110;2022-12-20T03:20:53;100322.25;;;15.10;77.01
74615;BME280;63121;51.458;-0.110;2022-12-20T03:23:19;100316.75;;;15.41;75.55
74615;BME280;63121;51.458;-0.110;2022-12-20T03:25:46;100303.66;;;15.44;74.99
74615;BME280;63121;51.458;-0.110;2022-12-20T03:28:11;100317.16;;;15.30;75.72
74615;BME280;63121;51.458;-0.110;2022-12-20T03:30:37;100313.31;;;15.40;75.33
74615;BME280;63121;51.458;-0.110;2022-12-20T03:33:02;100313.44;;;15.14;76.10
74615;BME280;63121;51.458;-0.110;2022-12-20T03:35:28;100309.53;;;15.02;76.58
74615;BME280;63121;51.458;-0.110;2022-12-20T03:37:53;100309.34;;;15.30;75.22
74615;BME280;63121;51.458;-0.110;2022-12-20T03:40:19;100310.59;;;14.96;76.31
74615;BME280;63121;51.458;-0.110;2022-12-20T03:42:45;100318.81;;;14.84;76.70
74615;BME280;63121;51.458;-0.110;2022-12-20T03:45:10;100308.53;;;14.81;76.49
74615;BME280;63121;51.458;-0.110;2022-12-20T03:47:36;100298.34;;;15.23;74.78
74615;BME280;63121;51.458;-0.110;2022-12-20T03:50:02;100294.78;;;15.02;75.03
74615;BME280;63121;51.458;-0.110;2022-12-20T03:52:27;100300.53;;;15.11;75.38
74615;BME280;63121;51.458;-0.110;2022-12-20T03:54:52;100296.53;;;15.02;75.54
74615;BME280;63121;51.458;-0.110;2022-12-20T03:57:18;100285.41;;;14.73;76.21
74615;BME280;63121;51.458;-0.110;2022-12-20T03:59:43;100291.47;;;14.99;75.67
74615;BME280;63121;51.458;-0.110;2022-12-20T04:02:09;100287.72;;;14.82;75.88
74615;BME280;63121;51.458;-0.110;2022-12-20T04:04:34;100279.34;;;15.21;74.22
74615;BME280;63121;51.458;-0.110;2022-12-20T04:06:59;100284.19;;;14.83;75.59
74615;BME280;63121;51.458;-0.110;2022-12-20T04:09:25;100285.16;;;14.81;75.35
74615;BME280;63121;51.458;-0.110;2022-12-20T04:11:50;100282.00;;;14.96;75.65
74615;BME280;63121;51.458;-0.110;2022-12-20T04:14:15;100281.06;;;15.22;75.00
74615;BME280;63121;51.458;-0.110;2022-12-20T04:16:41;100272.69;;;15.14;75.23
74615;BME280;63121;51.458;-0.110;2022-12-20T04:19:06;100278.06;;;15.10;75.34
74615;BME280;63121;51.458;-0.110;2022-12-20T04:21:33;100266.81;;;15.55;73.80
74615;BME280;63121;51.458;-0.110;2022-12-20T04:24:01;100285.09;;;14.82;76.20
74615;BME280;63121;51.458;-0.110;2022-12-20T04:26:26;100277.75;;;14.94;76.50
74615;BME280;63121;51.458;-0.110;2022-12-20T04:28:52;100270.19;;;14.88;76.66
74615;BME280;63121;51.458;-0.110;2022-12-20T04:31:17;100278.13;;;15.08;75.34
74615;BME280;63121;51.458;-0.110;2022-12-20T04:33:44;100275.66;;;15.51;74.34
74615;BME280;63121;51.458;-0.110;2022-12-20T04:36:09;100276.09;;;15.16;75.49
74615;BME280;63121;51.458;-0.110;2022-12-20T04:38:35;100273.47;;;15.40;74.12
74615;BME280;63121;51.458;-0.110;2022-12-20T04:41:00;100271.03;;;14.88;75.57
74615;BME280;63121;51.458;-0.110;2022-12-20T04:43:26;100267.53;;;14.89;75.54
74615;BME280;63121;51.458;-0.110;2022-12-20T04:45:52;100274.19;;;14.96;75.36
74615;BME280;63121;51.458;-0.110;2022-12-20T04:48:21;100260.19;;;15.00;75.11
74615;BME280;63121;51.458;-0.110;2022-12-20T04:50:49;100261.19;;;15.20;74.67
74615;BME280;63121;51.458;-0.110;2022-12-20T04:53:14;100261.50;;;15.12;74.29
74615;BME280;63121;51.458;-0.110;2022-12-20T04:55:58;100258.50;;;15.45;73.35
74615;BME280;63121;51.458;-0.110;2022-12-20T04:58:24;100240.81;;;15.09;74.63
74615;BME280;63121;51.458;-0.110;2022-12-20T05:00:49;100247.28;;;14.99;75.25
74615;BME280;63121;51.458;-0.110;2022-12-20T05:03:17;100245.22;;;15.31;74.95
74615;BME280;63121;51.458;-0.110;2022-12-20T05:05:42;100248.59;;;15.33;74.26
74615;BME280;63121;51.458;-0.110;2022-12-20T05:08:07;100241.47;;;15.38;74.46
74615;BME280;63121;51.458;-0.110;2022-12-20T05:10:33;100243.69;;;15.47;74.34
74615;BME280;63121;51.458;-0.110;2022-12-20T05:12:58;100245.22;;;15.31;74.00
74615;BME280;63121;51.458;-0.110;2022-12-20T05:15:23;100243.94;;;15.41;73.78
74615;BME280;63121;51.458;-0.110;2022-12-20T05:17:49;100236.59;;;15.74;72.92
74615;BME280;63121;51.458;-0.110;2022-12-20T05:20:14;100235.97;;;15.68;73.05
74615;BME280;63121;51.458;-0.110;2022-12-20T05:22:39;100246.94;;;15.54;74.13
74615;BME280;63121;51.458;-0.110;2022-12-20T05:25:23;100236.34;;;15.58;73.79
74615;BME280;63121;51.458;-0.110;2022-12-20T05:28:07;100249.69;;;15.03;75.49
74615;BME280;63121;51.458;-0.110;2022-12-20T05:30:33;100252.13;;;15.08;75.29
74615;BME280;63121;51.458;-0.110;2022-12-20T05:32:58;100249.84;;;15.22;74.44
74615;BME280;63121;51.458;-0.110;2022-12-20T05:35:23;100240.63;;;15.59;73.13
74615;BME280;63121;51.458;-0.110;2022-12-20T05:37:49;100247.75;;;15.54;73.49
74615;BME280;63121;51.458;-0.110;2022-12-20T05:40:14;100239.13;;;15.54;73.15
74615;BME280;63121;51.458;-0.110;2022-12-20T05:42:40;100260.16;;;15.48;73.92
74615;BME280;63121;51.458;-0.110;2022-12-20T05:45:06;100263.09;;;15.38;74.43
74615;BME280;63121;51.458;-0.110;2022-12-20T05:47:32;100244.63;;;15.46;74.29
74615;BME280;63121;51.458;-0.110;2022-12-20T05:50:02;100254.09;;;15.47;73.85
74615;BME280;63121;51.458;-0.110;2022-12-20T05:52:28;100256.63;;;15.27;74.96
74615;BME280;63121;51.458;-0.110;2022-12-20T05:54:53;100257.34;;;15.30;74.64
74615;BME280;63121;51.458;-0.110;2022-12-20T05:57:19;100254.09;;;15.47;74.58
74615;BME280;63121;51.458;-0.110;2022-12-20T05:59:44;100261.75;;;15.52;74.49
74615;BME280;63121;51.458;-0.110;2022-12-20T06:02:09;100246.75;;;15.80;73.27
74615;BME280;63121;51.458;-0.110;2022-12-20T06:04:37;100255.94;;;15.21;75.06
74615;BME280;63121;51.458;-0.110;2022-12-20T06:07:03;100250.38;;;15.54;73.97
74615;BME280;63121;51.458;-0.110;2022-12-20T06:09:30;100254.81;;;15.29;74.37
74615;BME280;63121;51.458;-0.110;2022-12-20T06:11:56;100269.28;;;15.36;73.96
74615;BME280;63121;51.458;-0.110;2022-12-20T06:14:21;100272.63;;;14.92;75.48
74615;BME280;63121;51.458;-0.110;2022-12-20T06:16:46;100269.69;;;15.25;74.25
74615;BME280;63121;51.458;-0.110;2022-12-20T06:19:12;100261.97;;;15.45;74.05
74615;BME280;63121;51.458;-0.110;2022-12-20T06:21:38;100271.84;;;15.37;73.96
74615;BME280;63121;51.458;-0.110;2022-12-20T06:24:04;100271.50;;;15.69;73.12
74615;BME280;63121;51.458;-0.110;2022-12-20T06:26:30;100278.13;;;15.08;75.18
74615;BME280;63121;51.458;-0.110;2022-12-20T06:29:00;100286.88;;;15.29;73.86
74615;BME280;63121;51.458;-0.110;2022-12-20T06:31:26;100300.50;;;15.36;74.06
74615;BME280;63121;51.458;-0.110;2022-12-20T06:33:52;100296.75;;;15.19;74.43
74615;BME280;63121;51.458;-0.110;2022-12-20T06:36:17;100309.84;;;15.18;75.12
74615;BME280;63121;51.458;-0.110;2022-12-20T06:38:43;100315.25;;;15.12;74.75
74615;BME280;63121;51.458;-0.110;2022-12-20T06:41:08;100304.53;;;15.43;73.68
74615;BME280;63121;51.458;-0.110;2022-12-20T06:43:33;100301.63;;;15.29;73.67
74615;BME280;63121;51.458;-0.110;2022-12-20T06:45:59;100316.84;;;15.16;74.91
74615;BME280;63121;51.458;-0.110;2022-12-20T06:48:24;100336.56;;;15.21;74.17
74615;BME280;63121;51.458;-0.110;2022-12-20T06:50:49;100353.13;;;14.94;75.85
74615;BME280;63121;51.458;-0.110;2022-12-20T06:53:15;100367.44;;;14.54;75.61
74615;BME280;63121;51.458;-0.110;2022-12-20T06:55:40;100368.97;;;14.06;75.14
74615;BME280;63121;51.458;-0.110;2022-12-20T06:58:06;100373.31;;;14.34;73.98
74615;BME280;63121;51.458;-0.110;2022-12-20T07:00:31;100388.53;;;13.90;75.28
74615;BME280;63121;51.458;-0.110;2022-12-20T07:02:57;100406.63;;;13.61;75.58
74615;BME280;63121;51.458;-0.110;2022-12-20T07:05:23;100406.06;;;14.10;74.55
74615;BME280;63121;51.458;-0.110;2022-12-20T07:07:49;100418.72;;;13.92;74.86
74615;BME280;63121;51.458;-0.110;2022-12-20T07:10:15;100417.72;;;13.67;75.37
74615;BME280;63121;51.458;-0.110;2022-12-20T07:12:40;100423.59;;;13.73;75.55
74615;BME280;63121;51.458;-0.110;2022-12-20T07:15:06;100424.41;;;14.03;74.52
74615;BME280;63121;51.458;-0.110;2022-12-20T07:17:32;100416.06;;;14.22;74.03
74615;BME280;63121;51.458;-0.110;2022-12-20T07:19:57;100425.03;;;14.68;72.69
74615;BME280;63121;51.458;-0.110;2022-12-20T07:22:23;100430.84;;;14.76;71.96
74615;BME280;63121;51.458;-0.110;2022-12-20T07:24:48;100449.75;;;13.95;74.47
74615;BME280;63121;51.458;-0.110;2022-12-20T07:27:14;100449.38;;;14.08;74.38
74615;BME280;63121;51.458;-0.110;2022-12-20T07:29:39;100463.91;;;14.15;74.03
74615;BME280;63121;51.458;-0.110;2022-12-20T07:32:06;100464.47;;;13.95;73.95
74615;BME280;63121;51.458;-0.110;2022-12-20T07:34:32;100470.31;;;14.61;72.88
74615;BME280;63121;51.458;-0.110;2022-12-20T07:36:57;100471.34;;;14.55;72.73
74615;BME280;63121;51.458;-0.110;2022-12-20T07:39:23;100477.34;;;14.28;72.28
74615;BME280;63121;51.458;-0.110;2022-12-20T07:41:53;100473.72;;;14.03;73.33
74615;BME280;63121;51.458;-0.110;2022-12-20T07:44:19;100481.09;;;14.19;72.66
74615;BME280;63121;51.458;-0.110;2022-12-20T07:46:45;100483.22;;;14.34;71.87
74615;BME280;63121;51.458;-0.110;2022-12-20T07:49:10;100485.19;;;14.26;71.35
74615;BME280;63121;51.458;-0.110;2022-12-20T07:51:37;100486.69;;;14.03;71.16
74615;BME280;63121;51.458;-0.110;2022-12-20T07:54:15;100481.28;;;14.41;70.60
74615;BME280;63121;51.458;-0.110;2022-12-20T07:56:45;100481.38;;;14.08;70.53
74615;BME280;63121;51.458;-0.110;2022-12-20T07:59:14;100487.16;;;14.18;70.38
74615;BME280;63121;51.458;-0.110;2022-12-20T08:01:42;100494.97;;;14.16;69.93
74615;BME280;63121;51.458;-0.110;2022-12-20T08:04:23;100502.41;;;14.29;69.76
74615;BME280;63121;51.458;-0.110;2022-12-20T08:06:51;100503.44;;;13.93;71.23
74615;BME280;63121;51.458;-0.110;2022-12-20T08:09:17;100514.44;;;14.01;70.41
74615;BME280;63121;51.458;-0.110;2022-12-20T08:11:45;100526.19;;;14.15;70.52
74615;BME280;63121;51.458;-0.110;2022-12-20T08:14:12;100530.47;;;14.16;70.41
74615;BME280;63121;51.458;-0.110;2022-12-20T08:16:37;100529.59;;;14.17;70.03
74615;BME280;63121;51.458;-0.110;2022-12-20T08:19:03;100542.19;;;13.99;70.97
74615;BME280;63121;51.458;-0.110;2022-12-20T08:21:29;100540.19;;;13.78;71.43
74615;BME280;63121;51.458;-0.110;2022-12-20T08:23:55;100547.19;;;13.43;72.84
74615;BME280;63121;51.458;-0.110;2022-12-20T08:26:21;100546.63;;;13.63;72.07
74615;BME280;63121;51.458;-0.110;2022-12-20T08:28:46;100564.13;;;13.55;71.96
74615;BME280;63121;51.458;-0.110;2022-12-20T08:31:12;100568.22;;;13.31;73.18
74615;BME280;63121;51.458;-0.110;2022-12-20T08:33:38;100571.09;;;13.53;72.55
74615;BME280;63121;51.458;-0.110;2022-12-20T08:36:07;100568.38;;;13.23;73.28
74615;BME280;63121;51.458;-0.110;2022-12-20T08:38:33;100586.63;;;13.18;73.35
74615;BME280;63121;51.458;-0.110;2022-12-20T08:41:03;100581.81;;;13.03;73.65
74615;BME280;63121;51.458;-0.110;2022-12-20T08:43:33;100589.06;;;13.25;72.94
74615;BME280;63121;51.458;-0.110;2022-12-20T08:45:59;100598.63;;;12.85;72.80
74615;BME280;63121;51.458;-0.110;2022-12-20T08:48:25;100591.03;;;13.15;71.81
74615;BME280;63121;51.458;-0.110;2022-12-20T08:50:55;100596.41;;;12.68;72.90
74615;BME280;63121;51.458;-0.110;2022-12-20T08:53:21;100595.59;;;13.05;71.35
74615;BME280;63121;51.458;-0.110;2022-12-20T08:55:47;100609.31;;;12.70;72.04
74615;BME280;63121;51.458;-0.110;2022-12-20T08:58:12;100609.66;;;12.54;72.09
74615;BME280;63121;51.458;-0.110;2022-12-20T09:00:37;100621.13;;;12.81;70.81
74615;BME280;63121;51.458;-0.110;2022-12-20T09:03:03;100619.09;;;12.96;70.60
74615;BME280;63121;51.458;-0.110;2022-12-20T09:05:28;100620.13;;;12.89;70.38
74615;BME280;63121;51.458;-0.110;2022-12-20T09:07:53;100621.56;;;12.63;70.64
74615;BME280;63121;51.458;-0.110;2022-12-20T09:10:19;100622.59;;;12.54;70.67
74615;BME280;63121;51.458;-0.110;2022-12-20T09:12:44;100631.38;;;12.46;71.03
74615;BME280;63121;51.458;-0.110;2022-12-20T09:15:09;100637.84;;;12.68;70.45
74615;BME280;63121;51.458;-0.110;2022-12-20T09:17:35;100645.41;;;12.77;70.27
74615;BME280;63121;51.458;-0.110;2022-12-20T09:20:01;100647.84;;;12.85;69.55
74615;BME280;63121;51.458;-0.110;2022-12-20T09:22:28;100656.56;;;12.81;70.25
74615;BME280;63121;51.458;-0.110;2022-12-20T09:24:53;100652.97;;;12.88;69.75
74615;BME280;63121;51.458;-0.110;2022-12-20T09:27:19;100658.69;;;12.62;70.50
74615;BME280;63121;51.458;-0.110;2022-12-20T09:29:44;100660.28;;;12.69;69.88
74615;BME280;63121;51.458;-0.110;2022-12-20T09:32:10;100668.66;;;12.80;70.31
74615;BME280;63121;51.458;-0.110;2022-12-20T09:34:35;100674.41;;;12.53;70.98
74615;BME280;63121;51.458;-0.110;2022-12-20T09:37:00;100684.56;;;12.62;70.24
74615;BME280;63121;51.458;-0.110;2022-12-20T09:39:26;100689.06;;;12.54;70.20
74615;BME280;63121;51.458;-0.110;2022-12-20T09:41:51;100686.69;;;12.41;70.49
74615;BME280;63121;51.458;-0.110;2022-12-20T09:44:28;100690.09;;;12.45;70.43
74615;BME280;63121;51.458;-0.110;2022-12-20T09:47:02;100695.38;;;12.82;69.18
74615;BME280;63121;51.458;-0.110;2022-12-20T09:49:32;100699.94;;;12.71;69.22
74615;BME280;63121;51.458;-0.110;2022-12-20T09:54:48;100694.50;;;12.84;69.07
74615;BME280;63121;51.458;-0.110;2022-12-20T09:57:26;100694.72;;;12.29;70.74
74615;BME280;63121;51.458;-0.110;2022-12-20T09:59:57;100695.47;;;12.34;70.57
74615;BME280;63121;51.458;-0.110;2022-12-20T10:02:23;100694.75;;;12.28;70.00
74615;BME280;63121;51.458;-0.110;2022-12-20T10:04:50;100703.84;;;12.47;69.82
74615;BME280;63121;51.458;-0.110;2022-12-20T10:07:36;100704.94;;;13.21;67.52
74615;BME280;63121;51.458;-0.110;2022-12-20T10:15:24;100714.22;;;12.91;67.40
74615;BME280;63121;51.458;-0.110;2022-12-20T10:20:49;100720.41;;;12.84;68.55
74615;BME280;63121;51.458;-0.110;2022-12-20T10:23:32;100723.56;;;12.98;67.50
74615;BME280;63121;51.458;-0.110;2022-12-20T10:26:00;100717.78;;;12.85;67.49
74615;BME280;63121;51.458;-0.110;2022-12-20T10:28:33;100720.03;;;13.42;66.61
74615;BME280;63121;51.458;-0.110;2022-12-20T10:31:06;100710.38;;;13.49;65.66
74615;BME280;63121;51.458;-0.110;2022-12-20T10:33:32;100711.53;;;13.36;65.88
74615;BME280;63121;51.458;-0.110;2022-12-20T10:38:45;100711.56;;;12.94;67.24
74615;BME280;63121;51.458;-0.110;2022-12-20T10:41:17;100708.78;;;13.44;65.34
74615;BME280;63121;51.458;-0.110;2022-12-20T10:43:45;100722.44;;;13.52;65.75
74615;BME280;63121;51.458;-0.110;2022-12-20T10:46:13;100714.19;;;12.92;66.41
74615;BME280;63121;51.458;-0.110;2022-12-20T10:48:42;100713.53;;;12.82;66.89
74615;BME280;63121;51.458;-0.110;2022-12-20T10:53:35;100712.75;;;13.94;63.99
74615;BME280;63121;51.458;-0.110;2022-12-20T10:56:24;100713.41;;;14.02;63.37
74615;BME280;63121;51.458;-0.110;2022-12-20T11:01:42;100707.19;;;12.96;66.19
74615;BME280;63121;51.458;-0.110;2022-12-20T11:04:28;100702.56;;;13.10;64.77
74615;BME280;63121;51.458;-0.110;2022-12-20T11:06:55;100700.75;;;13.90;63.92
74615;BME280;63121;51.458;-0.110;2022-12-20T11:09:25;100703.09;;;13.26;63.41
74615;BME280;63121;51.458;-0.110;2022-12-20T11:12:12;100710.44;;;13.07;64.38
74615;BME280;63121;51.458;-0.110;2022-12-20T11:14:39;100702.44;;;13.16;64.79
74615;BME280;63121;51.458;-0.110;2022-12-20T11:17:18;100709.41;;;13.13;64.79
74615;BME280;63121;51.458;-0.110;2022-12-20T11:25:31;100717.28;;;13.49;63.07
74615;BME280;63121;51.458;-0.110;2022-12-20T11:28:15;100711.59;;;13.70;62.90
74615;BME280;63121;51.458;-0.110;2022-12-20T11:38:49;100735.69;;;13.75;62.01
74615;BME280;63121;51.458;-0.110;2022-12-20T11:41:43;100730.88;;;13.96;61.76
74615;BME280;63121;51.458;-0.110;2022-12-20T11:50:37;100723.75;;;13.31;62.25
74615;BME280;63121;51.458;-0.110;2022-12-20T11:53:22;100714.22;;;13.33;62.59
74615;BME280;63121;51.458;-0.110;2022-12-20T11:55:52;100726.53;;;13.60;61.85
74615;BME280;63121;51.458;-0.110;2022-12-20T11:58:24;100729.53;;;13.44;61.47
74615;BME280;63121;51.458;-0.110;2022-12-20T12:01:05;100723.97;;;13.20;61.87
74615;BME280;63121;51.458;-0.110;2022-12-20T12:03:39;100715.50;;;13.52;61.91
74615;BME280;63121;51.458;-0.110;2022-12-20T12:06:10;100717.63;;;13.35;61.79
74615;BME280;63121;51.458;-0.110;2022-12-20T12:08:45;100711.06;;;13.17;62.45
74615;BME280;63121;51.458;-0.110;2022-12-20T12:13:43;100707.13;;;13.41;61.63
74615;BME280;63121;51.458;-0.110;2022-12-20T12:16:17;100712.00;;;13.13;62.22
74615;BME280;63121;51.458;-0.110;2022-12-20T12:18:44;100711.34;;;13.45;61.23
74615;BME280;63121;51.458;-0.110;2022-12-20T12:21:30;100703.63;;;13.42;60.77
74615;BME280;63121;51.458;-0.110;2022-12-20T12:24:28;100703.38;;;13.53;59.96
74615;BME280;63121;51.458;-0.110;2022-12-20T12:27:00;100691.34;;;13.11;61.18
74615;BME280;63121;51.458;-0.110;2022-12-20T12:29:28;100695.34;;;13.25;61.17
74615;BME280;63121;51.458;-0.110;2022-12-20T12:32:01;100702.91;;;13.35;60.29
74615;BME280;63121;51.458;-0.110;2022-12-20T12:37:38;100701.47;;;13.59;59.06
74615;BME280;63121;51.458;-0.110;2022-12-20T12:45:42;100696.59;;;13.83;57.78
74615;BME280;63121;51.458;-0.110;2022-12-20T12:48:16;100685.84;;;13.64;58.43
74615;BME280;63121;51.458;-0.110;2022-12-20T12:50:43;100690.06;;;13.31;58.85
74615;BME280;63121;51.458;-0.110;2022-12-20T12:53:34;100697.97;;;13.62;57.75
74615;BME280;63121;51.458;-0.110;2022-12-20T13:04:30;100688.38;;;13.66;57.17
74615;BME280;63121;51.458;-0.110;2022-12-20T13:11:53;100698.25;;;13.86;57.14
74615;BME280;63121;51.458;-0.110;2022-12-20T13:17:33;100704.97;;;13.58;57.53
74615;BME280;63121;51.458;-0.110;2022-12-20T13:19:50;100706.66;;;13.59;56.97
74615;BME280;63121;51.458;-0.110;2022-12-20T13:22:22;100714.22;;;14.37;56.04
74615;BME280;63121;51.458;-0.110;2022-12-20T13:24:55;100718.22;;;14.16;55.84
74615;BME280;63121;51.458;-0.110;2022-12-20T13:27:26;100714.03;;;13.76;56.06
74615;BME280;63121;51.458;-0.110;2022-12-20T13:35:31;100705.22;;;13.48;56.28
74615;BME280;63121;51.458;-0.110;2022-12-20T13:38:01;100694.38;;;13.68;56.43
74615;BME280;63121;51.458;-0.110;2022-12-20T13:40:39;100695.59;;;13.53;56.88
74615;BME280;63121;51.458;-0.110;2022-12-20T13:43:29;100698.59;;;13.72;55.49
74615;BME280;63121;51.458;-0.110;2022-12-20T13:51:15;100694.38;;;13.68;55.73
74615;BME280;63121;51.458;-0.110;2022-12-20T13:53:50;100706.91;;;13.50;55.91
74615;BME280;63121;51.458;-0.110;2022-12-20T13:59:31;100696.75;;;13.77;55.26
74615;BME280;63121;51.458;-0.110;2022-12-20T14:02:00;100698.59;;;13.72;55.98
74615;BME280;63121;51.458;-0.110;2022-12-20T14:04:38;100704.81;;;14.00;55.43
74615;BME280;63121;51.458;-0.110;2022-12-20T14:07:05;100704.94;;;13.60;55.47
74615;BME280;63121;51.458;-0.110;2022-12-20T14:09:36;100703.47;;;13.86;55.19
74615;BME280;63121;51.458;-0.110;2022-12-20T14:12:15;100704.84;;;13.99;54.67
74615;BME280;63121;51.458;-0.110;2022-12-20T14:14:45;100706.28;;;14.11;54.12
74615;BME280;63121;51.458;-0.110;2022-12-20T14:17:26;100702.75;;;13.79;55.21
74615;BME280;63121;51.458;-0.110;2022-12-20T14:22:33;100713.19;;;14.44;53.87
74615;BME280;63121;51.458;-0.110;2022-12-20T14:24:59;100715.31;;;13.96;54.58